Nearby METAR Reports

 

PAEN - Kenai, Alaska, USA
Distance from station: ESE 2mi, 4km
Updated: Thu, 28-May-2020 7:53am AKDT
Clear
Clear
 Wind from calm
Wind: Calm
Temperature: 52°F , 11°C
Dew Point: 34°F , 1°C
Humidity: 50%
Barometer: 30.13 inHg , 1020.3 hPa
Clouds: Clear
Visibility: 10 miles , 16 km
2020/05/28 15:53 PAEN 281553Z 00000KT 10SM CLR 11/01 A3013 RMK AO2 SLP206 T01110011 $
PASX - Soldotna, Alaska, USA
Distance from station: SE 12mi, 19km
Updated: Thu, 28-May-2020 7:56am AKDT
Clear
Clear
 Wind from calm
Wind: Calm
Temperature: 50°F , 10°C
Dew Point: 34°F , 1°C
Humidity: 54%
Barometer: 30.15 inHg , 1021 hPa
Clouds: Clear
Visibility: 10 miles , 16 km
2020/05/28 15:56 PASX 281556Z AUTO 00000KT 10SM CLR 10/01 A3015 RMK AO2 SLP220 T01000011
 
PANC - Anchorage Intl, Alaska, USA
Distance from station: NE 59mi, 96km
Updated: Thu, 28-May-2020 7:53am AKDT
Partly cloudy
Partly cloudy
 Wind from ENE
Wind: ENE 6 mph , 9 km/h
Temperature: 50°F , 10°C
Wind Chill: 48°F , 9°C
Dew Point: 36°F , 2°C
Humidity: 58%
Barometer: 30.12 inHg , 1020 hPa
Clouds: Partly cloudy
Visibility: 10 miles , 16 km
Cloud details: Few Clouds 7000 ft
Partly cloudy 20000 ft
2020/05/28 15:53 PANC 281553Z 06005KT 10SM FEW070 SCT200 10/02 A3012 RMK AO2 SLP201 T01000022
PALH - Anchorage/Lake H, Alaska, USA
Distance from station: NE 61mi, 99km
Updated: Thu, 28-May-2020 7:53am AKDT
Clear
Clear
 Wind from NE
Wind: NE 7 mph , 11 km/h
Temperature: 50°F , 10°C
Wind Chill: 47°F , 8°C
Dew Point: 36°F , 2°C
Humidity: 58%
Barometer: 30.13 inHg , 1020.3 hPa
Clouds: Clear
Visibility: 10 miles , 16 km
2020/05/28 15:53 PALH 281553Z 04006KT 10SM CLR 10/02 A3013 RMK AO2 SLP205 T01000017
 
PAHO - Homer, Alaska, USA
Distance from station: S 66mi, 106km
Updated: Thu, 28-May-2020 7:53am AKDT
Clear
Clear
 Wind from calm
Wind: Calm
Temperature: 48°F , 9°C
Dew Point: 43°F , 6°C
Humidity: 82%
Barometer: 30.13 inHg , 1020.3 hPa
Clouds: Clear
Visibility: 10 miles , 16 km
2020/05/28 15:53 PAHO 281553Z 00000KT 10SM CLR 09/06 A3013 RMK AO2 SLP203 T00890056
PAMR - Anchorage/Merril, Alaska, USA
Distance from station: NE 66mi, 106km
Updated: Thu, 28-May-2020 7:53am AKDT
Partly cloudy
Partly cloudy
 Wind from NE
Wind: NE 3 mph , 6 km/h
Temperature: 50°F , 10°C
Dew Point: 34°F , 1°C
Humidity: 54%
Barometer: 30.13 inHg , 1020.3 hPa
Clouds: Partly cloudy
Visibility: 10 miles , 16 km
Cloud details: Partly cloudy 21000 ft
2020/05/28 15:53 PAMR 281553Z AUTO 04003KT 10SM SCT210 10/01 A3013 RMK AO2 SLP203 T01000011 TSNO
 
PAED - Elmendorf Afb, Alaska, USA
Distance from station: NE 69mi, 110km
Updated: Thu, 28-May-2020 6:56am AKDT
NOT Current
Clear
Clear
 Wind from calm
Wind: Calm
Temperature: 45°F , 7°C
Dew Point: 39°F , 4°C
Humidity: 81%
Barometer: 30.13 inHg , 1020.3 hPa
Clouds: Clear
Visibility: 10 miles , 16 km
2020/05/28 14:56 PAED 281456Z AUTO 00000KT 10SM CLR 07/04 A3013 RMK AO2 SLP199 T00720036 57004 $
PAWD - Seward, Alaska, USA
Distance from station: ESE 71mi, 115km
Updated: Thu, 28-May-2020 7:53am AKDT
Clear
Clear
 Wind from NNE
Wind: NNE 14 mph , 22 km/h, Gust: 22 mph , 35 km/h
Temperature: 52°F , 11°C
Dew Point: 36°F , 2°C
Humidity: 54%
Barometer: 30.06 inHg , 1017.9 hPa
Clouds: Clear
Visibility: 10 miles , 16 km
2020/05/28 15:53 PAWD 281553Z AUTO 03012G19KT 10SM CLR 11/02 A3006 RMK AO2 SLP180 T01060017 TSNO
 
PASC - Deadhorse, Alaska, USA
Distance from station: ENE 670mi, 1078km
Updated: Thu, 28-May-2020 7:53am AKDT
Overcast
Overcast
 Wind from SE
Wind: SE 3 mph , 6 km/h
Temperature: 30°F , -1°C
Dew Point: 28°F , -2°C
Humidity: 93%
Barometer: 30.34 inHg , 1027.4 hPa
Clouds: Overcast
Visibility: 10 miles , 16 km
Cloud details: Few Clouds 400 ft
Mostly cloudy 7000 ft
Overcast 10000 ft
2020/05/28 15:53 PASC 281553Z 13003KT 10SM FEW004 BKN070 OVC100 M01/M02 A3034 RMK AO2 SLP274 I1004 T10061017
PAAD - Point Thomson, Alaska, USA
Distance from station: ENE 680mi, 1094km
Updated: Thu, 28-May-2020 7:55am AKDT
Mostly cloudy
Mostly cloudy
 Wind from calm
Wind: Calm
Temperature: 34°F , 1°C
Dew Point: 32°F , 0°C
Humidity: 93%
Barometer: 30.34 inHg , 1027.4 hPa
Clouds: Mostly cloudy
Visibility: 10 miles , 16 km
Cloud details: Few Clouds 300 ft
Mostly cloudy 6500 ft
2020/05/28 15:55 PAAD 281555Z 00000KT 10SM FEW003 BKN065 01/00 A3034 RMK AO2 T00070000


kenaipeople.com website

Dans Automotive

Lower Peninsula Power Sports

Freddies RoadHouse

Alaska Weather Net